Time;durP1;ratioP1;P1;durP2;ratioP2;P2;SDS_P1;SDS_P2;PMS_P1;PMS_P2;Temp;Humidity;BMP_temperature;BMP_pressure;BME280_temperature;BME280_humidity;BME280_pressure;Samples;Min_cycle;Max_cycle;Signal;HPM_P1;HPM_P2
2024/01/18 00:00:17;;;;;;;8.65;5.30;;;8.50;99.90;;;;;;5033498;28;20465;-42
2024/01/18 00:02:44;;;;;;;9.02;5.43;;;8.50;99.90;;;;;;5033087;28;20041;-44
2024/01/18 00:05:11;;;;;;;9.35;5.30;;;8.50;99.90;;;;;;5030836;28;20559;-42
2024/01/18 00:07:38;;;;;;;7.85;5.65;;;8.50;99.90;;;;;;5031477;28;20055;-45
2024/01/18 00:10:06;;;;;;;7.90;5.40;;;8.50;99.90;;;;;;5036195;28;20565;-43
2024/01/18 00:12:35;;;;;;;8.30;5.40;;;8.40;99.90;;;;;;5030682;28;20280;-42
2024/01/18 00:15:02;;;;;;;10.20;5.72;;;8.50;99.90;;;;;;5033361;28;20052;-43
2024/01/18 00:17:30;;;;;;;7.90;5.78;;;8.50;99.90;;;;;;5030608;28;20132;-43
2024/01/18 00:19:57;;;;;;;9.55;6.13;;;8.60;99.90;;;;;;5034112;28;20056;-44
2024/01/18 00:22:24;;;;;;;8.35;5.60;;;8.50;99.90;;;;;;5032735;28;20493;-42
2024/01/18 00:24:51;;;;;;;9.98;6.35;;;8.50;99.90;;;;;;5032141;28;20071;-41
2024/01/18 00:27:18;;;;;;;10.63;6.60;;;8.50;99.90;;;;;;5028689;28;20526;-44
2024/01/18 00:29:45;;;;;;;7.78;5.38;;;8.60;99.90;;;;;;5035437;28;20041;-41
2024/01/18 00:32:12;;;;;;;8.43;6.07;;;8.60;99.90;;;;;;5033544;28;20473;-41
2024/01/18 00:34:39;;;;;;;9.93;5.38;;;8.60;99.90;;;;;;5035875;28;20056;-41
2024/01/18 00:37:07;;;;;;;8.30;5.70;;;8.60;99.90;;;;;;5038949;28;20048;-41
2024/01/18 00:39:38;;;;;;;8.90;5.78;;;8.60;99.90;;;;;;5037431;28;20049;-43
2024/01/18 00:42:05;;;;;;;7.38;5.63;;;8.60;99.90;;;;;;5039373;28;20051;-42
2024/01/18 00:44:32;;;;;;;8.77;5.78;;;8.60;99.90;;;;;;5039761;28;20065;-41
2024/01/18 00:46:59;;;;;;;9.65;5.97;;;8.60;99.90;;;;;;5035006;28;20038;-44
2024/01/18 00:49:26;;;;;;;7.22;4.60;;;8.50;99.90;;;;;;5038693;28;20144;-41
2024/01/18 00:51:53;;;;;;;9.23;5.45;;;8.70;99.90;;;;;;5041814;28;20039;-46
2024/01/18 00:54:20;;;;;;;8.35;5.53;;;8.80;99.90;;;;;;5043174;28;20054;-41
2024/01/18 00:56:47;;;;;;;7.85;5.57;;;8.80;99.90;;;;;;5040344;28;20551;-43
2024/01/18 00:59:14;;;;;;;7.57;5.00;;;8.80;99.90;;;;;;5041798;28;20052;-44
2024/01/18 01:01:40;;;;;;;7.25;5.05;;;8.70;99.90;;;;;;5038834;28;20083;-41
2024/01/18 01:04:07;;;;;;;8.35;5.40;;;8.70;99.90;;;;;;5039665;28;20113;-44
2024/01/18 01:06:34;;;;;;;8.07;5.60;;;8.60;99.90;;;;;;5039254;28;20045;-44
2024/01/18 01:09:01;;;;;;;11.95;5.90;;;8.60;99.90;;;;;;5040529;28;20049;-47
2024/01/18 01:11:28;;;;;;;9.27;5.78;;;8.60;99.90;;;;;;5038897;28;20045;-42
2024/01/18 01:13:55;;;;;;;8.90;4.90;;;8.50;99.90;;;;;;5035976;28;20465;-44
2024/01/18 01:16:22;;;;;;;9.40;5.38;;;8.60;99.90;;;;;;5030626;28;20041;-44
2024/01/18 01:18:49;;;;;;;7.53;5.43;;;8.60;99.90;;;;;;5031058;28;20835;-41
2024/01/18 01:21:16;;;;;;;7.18;4.97;;;8.60;99.90;;;;;;5033400;28;20135;-41
2024/01/18 01:23:48;;;;;;;7.38;4.90;;;8.60;99.90;;;;;;5029811;28;20132;-45
2024/01/18 01:26:15;;;;;;;10.40;5.28;;;8.70;99.90;;;;;;5033366;28;20052;-43
2024/01/18 01:28:43;;;;;;;7.60;5.07;;;8.70;99.90;;;;;;5036038;28;20051;-41
2024/01/18 01:31:10;;;;;;;8.30;5.57;;;8.70;99.90;;;;;;5037374;28;20128;-41
2024/01/18 01:33:36;;;;;;;8.98;5.82;;;8.60;99.90;;;;;;5036994;28;20136;-45
2024/01/18 01:36:05;;;;;;;9.05;5.43;;;8.50;99.90;;;;;;5037561;28;20111;-43
2024/01/18 01:38:32;;;;;;;8.93;5.50;;;8.50;99.90;;;;;;5030388;28;20065;-44
2024/01/18 01:41:00;;;;;;;9.32;5.40;;;8.40;99.90;;;;;;5033071;28;20049;-45
2024/01/18 01:43:27;;;;;;;9.52;5.78;;;8.40;99.90;;;;;;5032636;28;20478;-42
2024/01/18 01:45:54;;;;;;;8.30;5.78;;;8.40;99.90;;;;;;5039691;28;20107;-42
2024/01/18 01:48:21;;;;;;;7.85;5.13;;;8.30;99.90;;;;;;5038171;28;20052;-44
2024/01/18 01:50:48;;;;;;;9.68;5.85;;;8.20;99.90;;;;;;5035256;28;20046;-41
2024/01/18 01:53:18;;;;;;;9.75;5.50;;;8.20;99.90;;;;;;5040387;28;20442;-43
2024/01/18 01:55:46;;;;;;;8.88;5.97;;;8.20;99.90;;;;;;5036824;28;20210;-40
2024/01/18 01:58:15;;;;;;;8.70;5.35;;;8.10;99.90;;;;;;5035374;28;20055;-41
2024/01/18 02:00:44;;;;;;;10.63;6.28;;;8.10;99.90;;;;;;5032074;28;20049;-38
2024/01/18 02:03:11;;;;;;;9.00;6.22;;;8.00;99.90;;;;;;5028455;28;20049;-48
2024/01/18 02:05:39;;;;;;;10.40;6.90;;;8.00;99.90;;;;;;5030424;28;20045;-41
2024/01/18 02:08:06;;;;;;;11.27;6.78;;;8.00;99.90;;;;;;5031863;28;20040;-42
2024/01/18 02:10:33;;;;;;;10.52;6.60;;;7.90;99.90;;;;;;5030134;28;20063;-45
2024/01/18 02:13:02;;;;;;;11.00;6.93;;;7.90;99.90;;;;;;5032555;28;20494;-42
2024/01/18 02:15:29;;;;;;;11.00;6.43;;;7.90;99.90;;;;;;5032169;28;20042;-41
2024/01/18 02:17:56;;;;;;;10.35;6.70;;;7.80;99.90;;;;;;5037572;28;20037;-43
2024/01/18 02:20:23;;;;;;;13.70;6.65;;;7.80;99.90;;;;;;5034307;28;20087;-41
2024/01/18 02:22:50;;;;;;;11.30;6.85;;;7.80;99.90;;;;;;5031843;28;20037;-42
2024/01/18 02:25:26;;;;;;;11.05;6.57;;;7.80;99.90;;;;;;5030902;28;20693;-41
2024/01/18 02:27:55;;;;;;;10.45;6.97;;;7.70;99.90;;;;;;5032862;28;20049;-42
2024/01/18 02:30:22;;;;;;;10.85;7.13;;;7.80;99.90;;;;;;5031739;28;20052;-47
2024/01/18 02:32:51;;;;;;;12.15;7.15;;;7.70;99.90;;;;;;5027011;28;20039;-45
2024/01/18 02:35:18;;;;;;;11.02;7.10;;;7.80;99.90;;;;;;5026325;28;20040;-46
2024/01/18 02:37:46;;;;;;;14.55;9.13;;;7.70;99.90;;;;;;5026860;28;20421;-43
2024/01/18 02:40:13;;;;;;;12.68;8.60;;;7.70;99.90;;;;;;5031444;28;20532;-43
2024/01/18 02:42:40;;;;;;;11.63;8.38;;;7.50;99.90;;;;;;5031776;28;20072;-42
2024/01/18 02:45:07;;;;;;;13.95;8.70;;;7.40;99.90;;;;;;5031270;28;20497;-42
2024/01/18 02:47:35;;;;;;;13.43;9.60;;;7.30;99.90;;;;;;5030446;28;20516;-41
2024/01/18 02:50:02;;;;;;;13.23;9.35;;;7.20;99.90;;;;;;5033076;28;20038;-43
2024/01/18 02:52:29;;;;;;;14.60;9.95;;;7.10;99.90;;;;;;5032288;28;20101;-41
2024/01/18 02:54:56;;;;;;;13.38;9.23;;;7.00;99.90;;;;;;5034571;28;20436;-44
2024/01/18 02:57:23;;;;;;;15.27;10.63;;;6.90;99.90;;;;;;5029964;28;20045;-42
2024/01/18 02:59:50;;;;;;;13.23;9.70;;;6.80;99.90;;;;;;5031399;28;20072;-42
2024/01/18 03:02:17;;;;;;;15.32;10.00;;;6.70;99.90;;;;;;5031718;28;20060;-46
2024/01/18 03:04:44;;;;;;;15.80;9.85;;;6.70;99.90;;;;;;5027078;28;20046;-44
2024/01/18 03:07:11;;;;;;;14.05;9.30;;;6.60;99.90;;;;;;5032206;28;20033;-44
2024/01/18 03:09:38;;;;;;;10.52;7.20;;;6.50;99.90;;;;;;5032703;28;20037;-42
2024/01/18 03:12:05;;;;;;;9.32;6.20;;;6.20;99.90;;;;;;5032159;28;20045;-40
2024/01/18 03:14:32;;;;;;;7.18;4.95;;;6.00;99.90;;;;;;5029725;28;20041;-43
2024/01/18 03:17:03;;;;;;;6.60;4.85;;;5.80;99.90;;;;;;5030945;28;20041;-42
2024/01/18 03:19:30;;;;;;;6.35;4.47;;;5.70;99.90;;;;;;5026897;28;20433;-41
2024/01/18 03:21:57;;;;;;;7.32;4.82;;;5.60;99.90;;;;;;5031565;28;20049;-42
2024/01/18 03:24:24;;;;;;;8.75;5.75;;;5.40;99.90;;;;;;5021610;28;20069;-44
2024/01/18 03:26:52;;;;;;;8.25;5.00;;;5.40;99.90;;;;;;5030495;28;20048;-41
2024/01/18 03:29:19;;;;;;;8.10;5.30;;;5.30;99.90;;;;;;5030599;28;20454;-41
2024/01/18 03:31:46;;;;;;;7.95;5.07;;;5.30;99.90;;;;;;5030067;28;20029;-43
2024/01/18 03:34:12;;;;;;;7.95;5.32;;;5.20;99.90;;;;;;5031422;28;20136;-41
2024/01/18 03:36:39;;;;;;;8.05;5.38;;;5.20;99.90;;;;;;5029777;28;20083;-41
2024/01/18 03:39:07;;;;;;;8.68;5.57;;;5.20;99.90;;;;;;5031176;28;20124;-41
2024/01/18 03:41:34;;;;;;;8.77;5.88;;;5.10;99.90;;;;;;5028927;28;20468;-41
2024/01/18 03:44:00;;;;;;;9.00;5.82;;;5.10;99.90;;;;;;5030370;28;20520;-44
2024/01/18 03:46:27;;;;;;;9.55;6.35;;;5.10;99.90;;;;;;5028130;28;20522;-43
2024/01/18 03:48:54;;;;;;;9.00;5.70;;;5.10;99.90;;;;;;5031352;28;20072;-42
2024/01/18 03:51:21;;;;;;;8.27;5.78;;;5.10;99.90;;;;;;5027881;28;20041;-41
2024/01/18 03:53:49;;;;;;;8.45;5.72;;;5.00;99.90;;;;;;5031476;28;20572;-42
2024/01/18 03:56:16;;;;;;;9.45;6.30;;;5.00;99.90;;;;;;5026956;28;20090;-45
2024/01/18 03:58:43;;;;;;;9.43;6.13;;;5.00;99.90;;;;;;5028763;28;20045;-42
2024/01/18 04:01:10;;;;;;;9.60;6.28;;;5.00;99.90;;;;;;5029677;28;20544;-43
2024/01/18 04:03:37;;;;;;;9.25;6.35;;;4.90;99.90;;;;;;5029946;28;20096;-44
2024/01/18 04:06:04;;;;;;;11.07;7.03;;;4.90;99.90;;;;;;5034890;28;20610;-42
2024/01/18 04:08:31;;;;;;;10.10;6.85;;;4.90;99.90;;;;;;5033382;28;20120;-39
2024/01/18 04:10:59;;;;;;;9.90;6.60;;;4.90;99.90;;;;;;5034777;28;20057;-44
2024/01/18 04:13:25;;;;;;;9.65;6.22;;;4.90;99.90;;;;;;5031349;28;20041;-39
2024/01/18 04:15:52;;;;;;;10.82;7.55;;;4.90;99.90;;;;;;5034249;28;20132;-43
2024/01/18 04:18:19;;;;;;;11.93;7.10;;;4.80;99.90;;;;;;5032138;28;20065;-43
2024/01/18 04:20:46;;;;;;;15.25;8.32;;;4.90;99.90;;;;;;5032949;28;20053;-38
2024/01/18 04:23:13;;;;;;;14.77;8.55;;;4.90;99.90;;;;;;5031303;28;20072;-40
2024/01/18 04:25:40;;;;;;;11.18;7.10;;;4.90;99.90;;;;;;5032172;28;20103;-43
2024/01/18 04:28:07;;;;;;;11.05;7.20;;;4.90;99.90;;;;;;5031524;28;20041;-44
2024/01/18 04:30:34;;;;;;;9.80;6.43;;;4.90;99.90;;;;;;5031064;28;20502;-45
2024/01/18 04:33:01;;;;;;;9.13;6.10;;;4.90;99.90;;;;;;5034493;28;20041;-45
2024/01/18 04:35:29;;;;;;;8.75;5.82;;;4.80;99.90;;;;;;5030351;28;20056;-43
2024/01/18 04:37:55;;;;;;;11.20;6.68;;;4.70;99.90;;;;;;5030873;28;20049;-42
2024/01/18 04:40:22;;;;;;;12.50;7.70;;;4.70;99.90;;;;;;5032414;28;20172;-42
2024/01/18 04:42:49;;;;;;;11.43;7.43;;;4.70;99.90;;;;;;5029347;28;20659;-42
2024/01/18 04:45:16;;;;;;;10.32;6.68;;;4.70;99.90;;;;;;5034281;28;20175;-42
2024/01/18 04:47:43;;;;;;;10.55;6.90;;;4.60;99.90;;;;;;5037264;28;20041;-42
2024/01/18 04:50:10;;;;;;;11.50;7.53;;;4.60;99.90;;;;;;5034870;28;20064;-42
2024/01/18 04:52:37;;;;;;;11.45;6.97;;;4.60;99.90;;;;;;5036560;28;20045;-40
2024/01/18 04:55:04;;;;;;;10.15;6.90;;;4.60;99.90;;;;;;5035161;28;20094;-44
2024/01/18 04:57:33;;;;;;;9.18;6.03;;;4.70;99.90;;;;;;5031514;28;20561;-38
2024/01/18 05:00:00;;;;;;;9.07;5.85;;;4.60;99.90;;;;;;5032697;28;20096;-43
2024/01/18 05:02:27;;;;;;;9.15;6.05;;;4.60;99.90;;;;;;5029049;28;20139;-41
2024/01/18 05:04:54;;;;;;;9.43;5.78;;;4.60;99.90;;;;;;5031189;28;20347;-44
2024/01/18 05:07:22;;;;;;;9.70;5.93;;;4.60;99.90;;;;;;5030721;28;20387;-43
2024/01/18 05:09:49;;;;;;;10.25;5.97;;;4.60;99.90;;;;;;5031190;28;20038;-41
2024/01/18 05:12:16;;;;;;;9.73;6.45;;;4.60;99.90;;;;;;5031641;28;20135;-44
2024/01/18 05:14:43;;;;;;;10.15;6.63;;;4.60;99.90;;;;;;5031364;28;20052;-43
2024/01/18 05:17:11;;;;;;;9.77;6.55;;;4.60;99.90;;;;;;5031030;28;20060;-42
2024/01/18 05:19:39;;;;;;;12.10;7.30;;;4.60;99.90;;;;;;5032131;28;20103;-39
2024/01/18 05:22:07;;;;;;;12.65;8.20;;;4.60;99.90;;;;;;5033415;28;20519;-43
2024/01/18 05:24:34;;;;;;;13.15;8.45;;;4.60;99.90;;;;;;5031522;28;20057;-42
2024/01/18 05:27:01;;;;;;;10.63;6.85;;;4.60;99.90;;;;;;5034836;28;20414;-44
2024/01/18 05:29:30;;;;;;;11.13;7.10;;;4.70;99.90;;;;;;5031279;28;20096;-43
2024/01/18 05:31:57;;;;;;;10.35;7.20;;;4.70;99.90;;;;;;5035876;28;20046;-48
2024/01/18 05:34:24;;;;;;;11.35;7.93;;;4.60;99.90;;;;;;5030856;28;20099;-48
2024/01/18 05:36:51;;;;;;;11.18;7.70;;;4.60;99.90;;;;;;5032335;28;20124;-42
2024/01/18 05:39:18;;;;;;;12.63;8.18;;;4.70;99.90;;;;;;5033963;28;20037;-43
2024/01/18 05:41:45;;;;;;;11.13;6.82;;;4.60;99.90;;;;;;5031817;28;20136;-46
2024/01/18 05:44:12;;;;;;;12.40;7.40;;;4.60;99.90;;;;;;5031118;28;20417;-42
2024/01/18 05:46:39;;;;;;;12.20;6.82;;;4.60;99.90;;;;;;5030673;28;20076;-45
2024/01/18 05:49:07;;;;;;;11.35;7.38;;;4.60;99.90;;;;;;5031959;28;20115;-42
2024/01/18 05:51:34;;;;;;;12.50;7.13;;;4.60;99.90;;;;;;5030957;28;20123;-43
2024/01/18 05:54:01;;;;;;;11.38;7.38;;;4.60;99.90;;;;;;5034148;28;20479;-43
2024/01/18 05:56:28;;;;;;;10.93;7.15;;;4.60;99.90;;;;;;5033942;28;20041;-44
2024/01/18 05:58:55;;;;;;;11.15;7.65;;;4.60;99.90;;;;;;5031724;28;20033;-40
2024/01/18 06:01:22;;;;;;;11.68;7.13;;;4.70;99.90;;;;;;5035636;28;20041;-44
2024/01/18 06:03:49;;;;;;;11.43;7.22;;;4.60;99.90;;;;;;5036474;28;20037;-50
2024/01/18 06:06:16;;;;;;;11.88;7.00;;;4.60;99.90;;;;;;5036789;28;20040;-44
2024/01/18 06:08:43;;;;;;;11.57;7.20;;;4.60;99.90;;;;;;5037880;28;20087;-39
2024/01/18 06:11:10;;;;;;;12.55;7.85;;;4.60;99.90;;;;;;5032441;28;20036;-48
2024/01/18 06:13:40;;;;;;;12.20;8.23;;;4.70;99.90;;;;;;5036336;28;20068;-43
2024/01/18 06:16:10;;;;;;;13.88;8.45;;;4.70;99.90;;;;;;5035666;28;20029;-42
2024/01/18 06:18:42;;;;;;;11.53;7.70;;;4.60;99.90;;;;;;5035516;28;20049;-42
2024/01/18 06:21:09;;;;;;;10.52;7.13;;;4.60;99.90;;;;;;5029954;28;20135;-44
2024/01/18 06:23:37;;;;;;;9.88;6.22;;;4.60;99.90;;;;;;5031057;28;20046;-46
2024/01/18 06:26:10;;;;;;;8.85;5.85;;;4.60;99.90;;;;;;5031021;28;20053;-41
2024/01/18 06:28:38;;;;;;;10.30;6.90;;;4.60;99.90;;;;;;5031079;28;20045;-46
2024/01/18 06:31:05;;;;;;;14.63;9.35;;;4.60;99.90;;;;;;5032529;28;20098;-44
2024/01/18 06:33:32;;;;;;;11.38;6.90;;;4.60;99.90;;;;;;5028302;28;20115;-43
2024/01/18 06:36:00;;;;;;;10.57;6.78;;;4.70;99.90;;;;;;5031826;28;20044;-43
2024/01/18 06:38:28;;;;;;;10.25;6.53;;;4.70;99.90;;;;;;5024789;28;20053;-44
2024/01/18 06:40:59;;;;;;;13.75;8.48;;;4.70;99.90;;;;;;5031920;28;20042;-47
2024/01/18 06:43:26;;;;;;;14.70;8.60;;;4.70;99.90;;;;;;5025846;28;20620;-41
2024/01/18 06:45:54;;;;;;;15.32;9.13;;;4.70;99.90;;;;;;5029445;28;20511;-44
2024/01/18 06:48:22;;;;;;;13.68;8.77;;;4.70;99.90;;;;;;5032238;28;20038;-45
2024/01/18 06:50:51;;;;;;;13.18;7.45;;;4.70;99.90;;;;;;5024906;28;20054;-42
2024/01/18 06:53:18;;;;;;;14.15;8.73;;;4.70;99.90;;;;;;5028882;28;20045;-47
2024/01/18 06:55:45;;;;;;;14.60;8.95;;;4.70;99.90;;;;;;5028143;28;20045;-41
2024/01/18 06:58:12;;;;;;;17.85;11.18;;;4.70;99.90;;;;;;5029780;28;20118;-48
2024/01/18 07:00:40;;;;;;;16.27;10.15;;;4.70;99.90;;;;;;5028691;28;20449;-44
2024/01/18 07:03:08;;;;;;;15.88;10.27;;;4.70;99.90;;;;;;5031832;28;20048;-41
2024/01/18 07:05:35;;;;;;;15.45;9.93;;;4.70;99.90;;;;;;5029693;28;20104;-42
2024/01/18 07:08:03;;;;;;;13.35;8.85;;;4.70;99.90;;;;;;5031753;28;20525;-44
2024/01/18 07:10:30;;;;;;;18.08;10.45;;;4.70;99.90;;;;;;5028799;28;20049;-44
2024/01/18 07:12:57;;;;;;;17.70;11.27;;;4.70;99.90;;;;;;5029991;28;20063;-43
2024/01/18 07:15:24;;;;;;;19.33;10.90;;;4.70;99.90;;;;;;5030351;28;20367;-45
2024/01/18 07:17:51;;;;;;;16.80;10.43;;;4.60;99.90;;;;;;5026626;28;20444;-46
2024/01/18 07:20:18;;;;;;;16.70;10.88;;;4.60;99.90;;;;;;5029070;28;20496;-43
2024/01/18 07:22:45;;;;;;;18.02;11.57;;;4.60;99.90;;;;;;5026488;28;20049;-45
2024/01/18 07:25:12;;;;;;;15.57;10.55;;;4.50;99.90;;;;;;5031544;28;20036;-45
2024/01/18 07:27:39;;;;;;;16.98;10.80;;;4.50;99.90;;;;;;5028995;28;20058;-47
2024/01/18 07:30:07;;;;;;;17.08;10.65;;;4.40;99.90;;;;;;5031640;28;20036;-43
2024/01/18 07:32:34;;;;;;;20.00;12.05;;;4.30;99.90;;;;;;5028176;28;20050;-44
2024/01/18 07:35:02;;;;;;;18.10;10.73;;;4.30;99.90;;;;;;5025761;28;20451;-42
2024/01/18 07:37:29;;;;;;;16.45;9.73;;;4.20;99.90;;;;;;5028671;28;20083;-44
2024/01/18 07:39:56;;;;;;;17.38;9.88;;;4.10;99.90;;;;;;5031794;28;20042;-42
2024/01/18 07:42:23;;;;;;;13.48;8.75;;;4.00;99.90;;;;;;5030531;28;20130;-46
2024/01/18 07:44:50;;;;;;;13.23;8.18;;;3.80;99.90;;;;;;5027095;28;20120;-43
2024/01/18 07:47:18;;;;;;;9.63;6.22;;;3.70;99.90;;;;;;5031387;28;20103;-42
2024/01/18 07:49:46;;;;;;;10.50;6.15;;;3.60;99.90;;;;;;5033437;28;20170;-47
2024/01/18 07:52:18;;;;;;;9.23;5.45;;;3.50;99.90;;;;;;5031482;28;20510;-40
2024/01/18 07:54:45;;;;;;;10.77;6.07;;;3.50;99.90;;;;;;5033978;28;20096;-47
2024/01/18 07:57:13;;;;;;;10.20;6.22;;;3.30;99.90;;;;;;5036087;28;20565;-42
2024/01/18 07:59:40;;;;;;;9.63;5.40;;;3.30;99.90;;;;;;5033858;28;20049;-45
2024/01/18 08:02:07;;;;;;;11.15;5.90;;;3.30;99.90;;;;;;5031385;28;20128;-45
2024/01/18 08:04:34;;;;;;;9.13;5.57;;;3.20;99.90;;;;;;5030652;28;20068;-43
2024/01/18 08:07:01;;;;;;;10.25;5.15;;;3.20;99.90;;;;;;5034258;28;20542;-49
2024/01/18 08:09:29;;;;;;;7.88;4.63;;;3.10;99.90;;;;;;5030778;28;20121;-43
2024/01/18 08:11:56;;;;;;;8.25;4.13;;;3.10;99.90;;;;;;5035881;28;20107;-44
2024/01/18 08:14:23;;;;;;;7.35;4.32;;;3.10;99.90;;;;;;5031632;28;20177;-42
2024/01/18 08:16:50;;;;;;;10.50;5.15;;;3.00;99.90;;;;;;5027778;28;20048;-43
2024/01/18 08:19:18;;;;;;;8.63;5.40;;;3.00;99.90;;;;;;5029811;28;20125;-41
2024/01/18 08:21:45;;;;;;;8.02;4.75;;;3.10;99.90;;;;;;5029901;28;20083;-45
2024/01/18 08:24:12;;;;;;;8.45;5.20;;;3.00;99.90;;;;;;5032780;28;20056;-45
2024/01/18 08:26:40;;;;;;;8.98;4.95;;;3.10;99.90;;;;;;5030009;28;20045;-44
2024/01/18 08:29:08;;;;;;;8.30;5.22;;;3.10;99.90;;;;;;5032609;28;20052;-45
2024/01/18 08:31:35;;;;;;;8.52;5.22;;;3.20;99.90;;;;;;5031423;28;20095;-43
2024/01/18 08:34:02;;;;;;;9.93;5.63;;;3.20;99.90;;;;;;5034674;28;20049;-42
2024/01/18 08:36:29;;;;;;;12.25;7.32;;;3.30;99.90;;;;;;5029401;28;20112;-42
2024/01/18 08:38:56;;;;;;;9.90;6.68;;;3.30;99.90;;;;;;5032582;28;20069;-49
2024/01/18 08:41:23;;;;;;;11.30;7.00;;;3.20;99.90;;;;;;5029695;28;20570;-43
2024/01/18 08:43:50;;;;;;;9.60;6.18;;;3.20;99.90;;;;;;5030990;28;20072;-41
2024/01/18 08:46:18;;;;;;;9.20;6.05;;;3.20;99.90;;;;;;5034222;28;20120;-44
2024/01/18 08:48:45;;;;;;;13.10;7.00;;;3.20;99.90;;;;;;5039250;28;20045;-49
2024/01/18 08:51:15;;;;;;;10.35;6.07;;;3.10;99.90;;;;;;5036483;28;20065;-43
2024/01/18 08:53:44;;;;;;;10.20;6.03;;;3.20;99.90;;;;;;5028779;28;20064;-41
2024/01/18 08:56:12;;;;;;;10.00;6.10;;;3.20;99.90;;;;;;5033210;28;20341;-45
2024/01/18 08:58:39;;;;;;;13.32;6.72;;;3.20;99.90;;;;;;5030857;28;20111;-42
2024/01/18 09:01:06;;;;;;;13.13;7.60;;;3.30;99.90;;;;;;5034061;28;20246;-45
2024/01/18 09:03:33;;;;;;;9.82;6.15;;;3.40;99.90;;;;;;5028420;28;20491;-46
2024/01/18 09:06:02;;;;;;;13.80;8.10;;;3.50;99.90;;;;;;5032788;28;20562;-43
2024/01/18 09:08:30;;;;;;;9.90;6.18;;;3.50;99.90;;;;;;5031632;28;20489;-40
2024/01/18 09:10:57;;;;;;;10.00;6.70;;;3.50;99.90;;;;;;5034818;28;20033;-44
2024/01/18 09:13:24;;;;;;;11.10;6.20;;;3.40;99.90;;;;;;5031325;28;20056;-42
2024/01/18 09:15:51;;;;;;;13.55;6.35;;;3.40;99.90;;;;;;5028260;28;20049;-46
2024/01/18 09:18:18;;;;;;;9.07;5.03;;;3.40;99.90;;;;;;5032534;28;20041;-41
2024/01/18 09:20:45;;;;;;;8.65;5.20;;;3.40;99.90;;;;;;5030270;28;20095;-44
2024/01/18 09:23:13;;;;;;;8.05;5.03;;;3.40;99.90;;;;;;5032434;28;20057;-41
2024/01/18 09:25:43;;;;;;;11.10;6.85;;;3.50;99.90;;;;;;5030114;28;20054;-44
2024/01/18 09:28:11;;;;;;;9.82;6.05;;;3.50;99.90;;;;;;5030001;28;20037;-47
2024/01/18 09:30:38;;;;;;;12.52;7.60;;;3.50;99.90;;;;;;5028559;28;20044;-45
2024/01/18 09:33:10;;;;;;;11.00;6.65;;;3.50;99.90;;;;;;5031046;28;20043;-45
2024/01/18 09:35:40;;;;;;;8.05;5.70;;;3.40;99.90;;;;;;5031673;28;20033;-44
2024/01/18 09:38:10;;;;;;;9.30;5.90;;;3.30;99.90;;;;;;5030642;28;20047;-43
2024/01/18 09:40:39;;;;;;;8.85;5.72;;;3.30;99.90;;;;;;5031109;28;20107;-42
2024/01/18 09:43:08;;;;;;;8.52;5.45;;;3.30;99.90;;;;;;5034823;28;20044;-41
2024/01/18 09:45:39;;;;;;;9.95;6.70;;;3.30;99.90;;;;;;5030865;28;20041;-42
2024/01/18 09:48:07;;;;;;;10.13;6.85;;;3.30;99.90;;;;;;5033687;28;20044;-44
2024/01/18 09:50:43;;;;;;;9.23;6.07;;;3.40;99.90;;;;;;5030134;28;20466;-46
2024/01/18 09:53:12;;;;;;;10.65;7.10;;;3.50;99.90;;;;;;5030756;28;20486;-41
2024/01/18 09:55:39;;;;;;;8.98;6.05;;;3.50;99.90;;;;;;5037642;28;20122;-42
2024/01/18 09:58:13;;;;;;;9.98;6.13;;;3.50;99.90;;;;;;5035916;28;20295;-40
2024/01/18 10:00:44;;;;;;;8.20;5.63;;;3.60;99.90;;;;;;5031161;28;20041;-41
2024/01/18 10:03:11;;;;;;;9.32;6.20;;;3.40;99.90;;;;;;5031408;28;20049;-44
2024/01/18 10:05:41;;;;;;;8.65;5.85;;;3.40;99.90;;;;;;5030277;28;20059;-47
2024/01/18 10:08:09;;;;;;;9.05;5.70;;;3.40;99.90;;;;;;5031871;28;20332;-48
2024/01/18 10:10:36;;;;;;;9.20;5.93;;;3.30;99.90;;;;;;5029820;28;20053;-43
2024/01/18 10:13:03;;;;;;;9.48;6.18;;;3.30;99.90;;;;;;5031908;28;20041;-47
2024/01/18 10:15:33;;;;;;;9.90;6.53;;;3.30;99.90;;;;;;5029223;28;20566;-44
2024/01/18 10:18:04;;;;;;;10.55;6.10;;;3.30;99.90;;;;;;5028325;28;20136;-42
2024/01/18 10:20:32;;;;;;;9.50;6.03;;;3.40;99.90;;;;;;5027998;28;20041;-41
2024/01/18 10:23:00;;;;;;;10.65;6.18;;;3.30;99.90;;;;;;5034735;28;20403;-47
2024/01/18 10:25:31;;;;;;;9.88;6.50;;;3.30;99.90;;;;;;5021423;28;20145;-44
2024/01/18 10:27:58;;;;;;;9.50;6.28;;;3.20;99.90;;;;;;5033360;28;20045;-46
2024/01/18 10:30:25;;;;;;;10.05;6.50;;;3.20;99.90;;;;;;5029246;28;20110;-44
2024/01/18 10:32:52;;;;;;;9.77;6.65;;;3.20;99.90;;;;;;5030373;28;20110;-45
2024/01/18 10:35:25;;;;;;;9.70;6.82;;;3.30;99.90;;;;;;5029737;28;20410;-43
2024/01/18 10:38:03;;;;;;;9.10;6.43;;;3.30;99.90;;;;;;5028197;28;20212;-44
2024/01/18 10:40:33;;;;;;;10.70;7.10;;;3.30;99.90;;;;;;5028951;28;20048;-45
2024/01/18 10:43:01;;;;;;;10.18;6.30;;;3.20;99.90;;;;;;5031115;28;20044;-42
2024/01/18 10:45:29;;;;;;;8.02;5.97;;;3.20;99.90;;;;;;5029694;28;20041;-43
2024/01/18 10:47:58;;;;;;;10.73;6.57;;;3.10;99.90;;;;;;5034492;28;20038;-42
2024/01/18 10:50:28;;;;;;;10.18;6.93;;;3.10;99.90;;;;;;5026541;28;20068;-41
2024/01/18 10:52:57;;;;;;;10.40;6.82;;;3.10;99.90;;;;;;5032512;28;20489;-45
2024/01/18 10:55:24;;;;;;;10.35;7.18;;;3.00;99.90;;;;;;5030792;28;20089;-43
2024/01/18 10:57:51;;;;;;;11.77;7.97;;;3.10;99.90;;;;;;5026511;28;20048;-43
2024/01/18 11:00:19;;;;;;;12.43;7.55;;;3.00;99.90;;;;;;5030733;28;20473;-50
2024/01/18 11:02:47;;;;;;;9.57;6.93;;;3.00;99.90;;;;;;5032033;28;20469;-44
2024/01/18 11:05:18;;;;;;;11.05;7.05;;;2.90;99.90;;;;;;5030713;28;20637;-44
2024/01/18 11:07:46;;;;;;;10.13;7.07;;;2.90;99.90;;;;;;5033698;28;20050;-44
2024/01/18 11:10:13;;;;;;;18.20;8.05;;;3.00;99.90;;;;;;5036451;28;20037;-46
2024/01/18 11:12:43;;;;;;;10.43;7.30;;;2.90;99.90;;;;;;5032986;28;20065;-43
2024/01/18 11:15:13;;;;;;;10.00;6.75;;;2.80;99.90;;;;;;5034427;28;20041;-44
2024/01/18 11:17:51;;;;;;;11.20;6.93;;;2.80;99.90;;;;;;5034023;28;20083;-41
2024/01/18 11:20:18;;;;;;;11.15;6.80;;;2.80;99.90;;;;;;5034045;28;20470;-40
2024/01/18 11:22:46;;;;;;;10.60;7.05;;;2.70;99.90;;;;;;5033877;28;20073;-43
2024/01/18 11:25:26;;;;;;;11.82;7.18;;;2.70;99.90;;;;;;5033398;28;20064;-42
2024/01/18 11:27:53;;;;;;;12.52;7.78;;;2.50;99.90;;;;;;5036746;28;20489;-42
2024/01/18 11:30:36;;;;;;;13.43;8.63;;;2.40;99.90;;;;;;5029559;28;20108;-46
2024/01/18 11:33:07;;;;;;;11.73;7.43;;;2.30;99.90;;;;;;5036714;28;20057;-40
2024/01/18 11:35:35;;;;;;;12.77;8.13;;;2.10;99.90;;;;;;5032943;28;20055;-45
2024/01/18 11:38:28;;;;;;;12.20;7.72;;;2.10;99.90;;;;;;5034965;28;20447;-45
2024/01/18 11:41:19;;;;;;;11.55;7.18;;;2.10;99.90;;;;;;5039643;28;20132;-40
2024/01/18 11:43:54;;;;;;;11.70;7.60;;;2.10;99.90;;;;;;5038135;28;20057;-44
2024/01/18 11:46:35;;;;;;;11.93;7.57;;;2.10;99.90;;;;;;5037079;28;20045;-45
2024/01/18 11:49:03;;;;;;;10.40;6.72;;;2.10;99.90;;;;;;5037904;28;20061;-44
2024/01/18 11:51:30;;;;;;;13.15;7.93;;;1.90;99.90;;;;;;5034482;28;20518;-46
2024/01/18 11:54:01;;;;;;;11.02;7.35;;;1.90;99.90;;;;;;5040993;28;20056;-44
2024/01/18 11:56:29;;;;;;;11.23;7.88;;;1.90;99.90;;;;;;5038354;28;20056;-49
2024/01/18 11:59:00;;;;;;;11.32;6.88;;;1.90;99.90;;;;;;5039544;28;20042;-41
2024/01/18 12:01:31;;;;;;;10.90;7.57;;;1.70;99.90;;;;;;5037894;28;20475;-47
2024/01/18 12:03:59;;;;;;;11.02;7.28;;;1.80;99.90;;;;;;5040350;28;20590;-47
2024/01/18 12:06:28;;;;;;;11.43;7.03;;;1.70;99.90;;;;;;5037568;28;20045;-42
2024/01/18 12:08:56;;;;;;;11.48;7.72;;;1.70;99.90;;;;;;5036281;28;20072;-46
2024/01/18 12:11:25;;;;;;;11.32;7.82;;;1.70;99.90;;;;;;5033266;28;20140;-44
2024/01/18 12:13:52;;;;;;;11.63;7.60;;;1.70;99.90;;;;;;5038244;28;20510;-45
2024/01/18 12:16:21;;;;;;;13.75;8.20;;;1.80;99.90;;;;;;5037738;28;20587;-42
2024/01/18 12:18:48;;;;;;;12.30;7.53;;;1.70;99.90;;;;;;5039955;28;20064;-42
2024/01/18 12:21:22;;;;;;;12.38;7.57;;;1.70;99.90;;;;;;5037122;28;20473;-50
2024/01/18 12:23:50;;;;;;;13.05;7.28;;;1.60;99.90;;;;;;5035600;28;20042;-44
2024/01/18 12:26:18;;;;;;;12.35;7.40;;;1.60;99.90;;;;;;5036179;28;20438;-44
2024/01/18 12:28:46;;;;;;;12.40;7.53;;;1.40;99.90;;;;;;5036589;28;20123;-43
2024/01/18 12:31:13;;;;;;;10.57;6.85;;;1.40;99.90;;;;;;5036020;28;20464;-45
2024/01/18 12:33:40;;;;;;;11.73;7.60;;;1.40;99.90;;;;;;5034784;28;20253;-46
2024/01/18 12:36:08;;;;;;;12.75;7.43;;;1.30;99.90;;;;;;5037661;28;20044;-42
2024/01/18 12:38:36;;;;;;;10.35;7.25;;;1.30;99.90;;;;;;5037245;28;20140;-44
2024/01/18 12:41:03;;;;;;;11.00;7.05;;;1.30;99.90;;;;;;5034948;28;20045;-44
2024/01/18 12:43:31;;;;;;;10.25;6.45;;;1.40;99.90;;;;;;5033141;28;20076;-44
2024/01/18 12:45:58;;;;;;;10.57;6.70;;;1.40;99.90;;;;;;5032030;28;20466;-43
2024/01/18 12:48:27;;;;;;;10.85;6.18;;;1.50;99.90;;;;;;5033335;28;20288;-45
2024/01/18 12:50:54;;;;;;;9.98;6.38;;;1.50;99.90;;;;;;5031061;28;20052;-44
2024/01/18 12:53:24;;;;;;;10.48;5.80;;;1.60;99.90;;;;;;5032745;28;20042;-46